Kaibab Indian Reservation, Arizona
Current Conditions -  °F | °C
As of 2:35 AM on Thursday 18 Dec 2014 (Local Time) from KAZC Reporting Station
Overcast Overcast  
Wind Chill: 37°   Ceiling: 1500
Heat Index: 37°   Visibility: 10mi
Dew Point: 37°   Wind: 0mph
Humidity: 99%   Direction: NA
Pressure: 30.12"   Gusts: NA
Location:  36.9484°N, 112.529°W
Report Text: KAZC 180935Z AUTO 00000KT 10SM OVC015 03/03 A3012 RMK AO2 T00290027
Loading
Personal Weather Stations






























Interactive Weather Map New forecast layout! Learn more

10-Day Weather Forecast

Advertisements
Track Severe Weather on mobile